Ronco, Pennsylvania
Current Conditions -  °F | °C
As of 1:53 AM on Sunday 26 Oct 2014 (Local Time) from KMGW Reporting Station
Clear Clear  
Wind Chill: 59°   Ceiling: Unl
Heat Index: 59°   Visibility: 10mi
Dew Point: 41°   Wind: 3mph
Humidity: 51%   Direction: NA
Pressure: 29.83"   Gusts: NA
Location:  39.87°N, 79.92°W
Report Text: KMGW 260553Z AUTO VRB03KT 10SM CLR 15/05 A2983 RMK AO2 SLP097 T01500050 10172 20150 50003 TSNO
Loading
Personal Weather Stations






























Interactive Weather Map
Tropical Storm Tracking
New forecast layout! Learn more

10-Day Weather Forecast

Advertisements
Track Severe Weather on mobile